createdAt,value
2023-03-08T00:01:25.654Z,2.70
2023-03-08T00:03:54.726Z,2.60
2023-03-08T00:06:24.545Z,2.70
2023-03-08T00:08:56.898Z,2.50
2023-03-08T00:11:25.519Z,2.50
2023-03-08T00:13:53.789Z,2.50
2023-03-08T00:16:23.192Z,2.60
2023-03-08T00:18:51.182Z,2.60
2023-03-08T00:21:20.434Z,2.60
2023-03-08T00:23:49.328Z,2.60
2023-03-08T00:26:17.288Z,2.60
2023-03-08T00:28:47.579Z,2.60
2023-03-08T00:31:15.830Z,2.60
2023-03-08T00:33:45.549Z,2.60
2023-03-08T00:36:18.721Z,2.50
2023-03-08T00:38:48.375Z,2.50
2023-03-08T00:41:16.447Z,2.40
2023-03-08T00:43:44.982Z,2.40
2023-03-08T00:46:13.656Z,2.40
2023-03-08T00:48:42.479Z,2.40
2023-03-08T00:51:15.761Z,2.40
2023-03-08T00:53:43.728Z,2.40
2023-03-08T00:56:12.301Z,2.40
2023-03-08T00:58:42.658Z,2.30
2023-03-08T01:01:17.243Z,2.40
2023-03-08T01:03:48.051Z,2.30
2023-03-08T01:06:18.776Z,2.20
2023-03-08T01:08:47.035Z,2.20
2023-03-08T01:11:21.258Z,2.20
2023-03-08T01:13:51.372Z,2.20
2023-03-08T01:16:22.242Z,2.20
2023-03-08T01:18:51.023Z,2.10
2023-03-08T01:21:23.016Z,2.10
2023-03-08T01:23:52.021Z,2.10
2023-03-08T01:26:23.084Z,2.20
2023-03-08T01:28:52.712Z,2.10
2023-03-08T01:31:24.170Z,2.10
2023-03-08T01:33:54.382Z,2.10
2023-03-08T01:36:27.735Z,2.00
2023-03-08T01:38:56.484Z,2.10
2023-03-08T01:41:27.254Z,2.10
2023-03-08T01:43:55.785Z,2.00
2023-03-08T01:46:28.520Z,2.00
2023-03-08T01:49:20.916Z,2.10
2023-03-08T01:52:01.728Z,2.10
2023-03-08T01:54:36.288Z,2.10
2023-03-08T01:57:12.695Z,2.10
2023-03-08T01:59:41.641Z,2.10
2023-03-08T02:02:10.218Z,2.10
2023-03-08T02:04:40.329Z,2.10
2023-03-08T02:07:12.872Z,2.10
2023-03-08T02:09:42.442Z,2.10
2023-03-08T02:12:14.063Z,2.20
2023-03-08T02:14:44.379Z,2.20
2023-03-08T02:17:13.491Z,2.20
2023-03-08T02:19:49.407Z,2.30
2023-03-08T02:22:19.416Z,2.30
2023-03-08T02:24:48.883Z,2.20
2023-03-08T02:27:23.052Z,2.20
2023-03-08T02:29:51.008Z,2.20
2023-03-08T02:32:19.568Z,2.20
2023-03-08T02:34:47.488Z,2.20
2023-03-08T02:37:15.430Z,2.10
2023-03-08T02:39:43.345Z,2.10
2023-03-08T02:42:12.771Z,2.00
2023-03-08T02:44:40.796Z,2.00
2023-03-08T02:47:09.722Z,2.00
2023-03-08T02:49:37.632Z,2.00
2023-03-08T02:52:05.975Z,2.00
2023-03-08T02:54:33.816Z,1.90
2023-03-08T02:57:02.520Z,2.00
2023-03-08T02:59:32.461Z,2.00
2023-03-08T03:02:00.648Z,2.00
2023-03-08T03:04:31.305Z,2.10
2023-03-08T03:07:00.652Z,2.10
2023-03-08T03:09:29.924Z,2.10
2023-03-08T03:11:58.174Z,2.20
2023-03-08T03:14:28.968Z,2.20
2023-03-08T03:16:59.985Z,2.30
2023-03-08T03:19:28.060Z,2.30
2023-03-08T03:21:56.177Z,2.30
2023-03-08T03:24:24.216Z,2.30
2023-03-08T03:26:55.526Z,2.30
2023-03-08T03:29:26.231Z,2.40
2023-03-08T03:32:03.832Z,2.40
2023-03-08T03:34:32.347Z,2.40
2023-03-08T03:37:00.687Z,2.30
2023-03-08T03:39:33.818Z,2.20
2023-03-08T03:42:02.611Z,2.30
2023-03-08T03:44:31.514Z,2.30
2023-03-08T03:47:00.005Z,2.30
2023-03-08T03:49:31.027Z,2.30
2023-03-08T03:51:59.030Z,2.30
2023-03-08T03:54:34.374Z,2.30
2023-03-08T03:57:02.397Z,2.40
2023-03-08T03:59:34.962Z,2.50
2023-03-08T04:02:04.221Z,2.40
2023-03-08T04:04:42.166Z,2.50
2023-03-08T04:07:13.198Z,2.50
2023-03-08T04:09:47.576Z,2.50
2023-03-08T04:12:17.943Z,2.50
2023-03-08T04:14:46.085Z,2.50
2023-03-08T04:17:15.383Z,2.40
2023-03-08T04:19:51.031Z,2.40
2023-03-08T04:22:20.546Z,2.40
2023-03-08T04:24:53.526Z,2.30
2023-03-08T04:27:27.624Z,2.40
2023-03-08T04:29:56.085Z,2.40
2023-03-08T04:32:24.838Z,2.40
2023-03-08T04:34:58.971Z,2.40
2023-03-08T04:37:30.527Z,2.40
2023-03-08T04:40:09.301Z,2.30
2023-03-08T04:42:43.301Z,2.30
2023-03-08T04:45:13.525Z,2.30
2023-03-08T04:47:41.666Z,2.40
2023-03-08T04:50:13.166Z,2.40
2023-03-08T04:52:42.160Z,2.40
2023-03-08T04:55:10.640Z,2.40
2023-03-08T04:57:39.433Z,2.40
2023-03-08T05:00:10.130Z,2.50
2023-03-08T05:02:40.238Z,2.40
2023-03-08T05:05:15.317Z,2.50
2023-03-08T05:07:44.095Z,2.50
2023-03-08T05:10:13.133Z,2.50
2023-03-08T05:12:42.592Z,2.50
2023-03-08T05:15:12.235Z,2.50
2023-03-08T05:17:40.207Z,2.50
2023-03-08T05:20:10.308Z,2.50
2023-03-08T05:22:57.236Z,2.40
2023-03-08T05:25:30.883Z,2.40
2023-03-08T05:27:58.970Z,2.50
2023-03-08T05:30:27.311Z,2.50
2023-03-08T05:32:55.595Z,2.50
2023-03-08T05:35:23.649Z,2.50
2023-03-08T05:37:53.857Z,2.50
2023-03-08T05:40:21.784Z,2.60
2023-03-08T05:42:51.443Z,2.60
2023-03-08T05:45:19.780Z,2.60
2023-03-08T05:47:48.035Z,2.70
2023-03-08T05:50:16.249Z,2.70
2023-03-08T05:52:45.303Z,2.70
2023-03-08T05:55:18.920Z,2.70
2023-03-08T05:57:48.311Z,2.70
2023-03-08T06:00:18.102Z,2.70
2023-03-08T06:02:51.537Z,2.70
2023-03-08T06:05:21.457Z,2.70
2023-03-08T06:07:52.750Z,2.70
2023-03-08T06:10:22.349Z,2.80
2023-03-08T06:12:51.733Z,2.80
2023-03-08T06:15:21.378Z,2.80
2023-03-08T06:17:49.428Z,2.80
2023-03-08T06:20:20.374Z,2.80
2023-03-08T06:22:51.491Z,2.80
2023-03-08T06:25:21.584Z,2.80
2023-03-08T06:27:50.348Z,2.80
2023-03-08T06:30:27.268Z,2.80
2023-03-08T06:32:55.949Z,2.80
2023-03-08T06:35:23.959Z,2.80
2023-03-08T06:37:57.743Z,2.80
2023-03-08T06:40:27.107Z,2.80
2023-03-08T06:42:55.321Z,2.80
2023-03-08T06:45:23.208Z,2.80
2023-03-08T06:47:51.765Z,2.80
2023-03-08T06:50:20.395Z,2.80
2023-03-08T06:52:50.502Z,2.80
2023-03-08T06:55:23.904Z,2.90
2023-03-08T06:57:53.374Z,2.90
2023-03-08T07:00:22.960Z,2.90
2023-03-08T07:02:51.424Z,2.90
2023-03-08T07:05:19.333Z,2.90
2023-03-08T07:07:47.319Z,2.90
2023-03-08T07:10:17.672Z,3.00
2023-03-08T07:12:48.441Z,3.10
2023-03-08T07:15:21.625Z,3.20
2023-03-08T07:17:52.133Z,3.30
2023-03-08T07:20:22.379Z,3.30
2023-03-08T07:22:50.474Z,3.30
2023-03-08T07:25:21.288Z,3.30
2023-03-08T07:27:49.914Z,3.30
2023-03-08T07:30:19.707Z,3.30
2023-03-08T07:32:47.823Z,3.30
2023-03-08T07:35:17.388Z,3.20
2023-03-08T07:37:46.910Z,3.20
2023-03-08T07:40:18.028Z,3.20
2023-03-08T07:42:46.155Z,3.20
2023-03-08T07:45:32.177Z,3.30
2023-03-08T07:48:00.141Z,3.30
2023-03-08T07:50:28.492Z,3.30
2023-03-08T07:52:56.426Z,3.30
2023-03-08T07:55:25.521Z,3.40
2023-03-08T07:57:53.458Z,3.40
2023-03-08T08:00:22.690Z,3.40
2023-03-08T08:02:54.068Z,3.40
2023-03-08T08:05:22.749Z,3.50
2023-03-08T08:07:50.970Z,3.50
2023-03-08T08:10:19.199Z,3.50
2023-03-08T08:12:47.125Z,3.50
2023-03-08T08:15:16.248Z,3.50
2023-03-08T08:17:44.235Z,3.50
2023-03-08T08:20:14.675Z,3.50
2023-03-08T08:22:42.966Z,3.60
2023-03-08T08:25:11.471Z,3.60
2023-03-08T08:27:39.499Z,3.60
2023-03-08T08:30:09.632Z,3.60
2023-03-08T08:32:37.869Z,3.60
2023-03-08T08:35:07.177Z,3.60
2023-03-08T08:37:36.484Z,3.60
2023-03-08T08:40:07.863Z,3.60
2023-03-08T08:42:35.902Z,3.60
2023-03-08T08:45:04.048Z,3.50
2023-03-08T08:47:32.014Z,3.40
2023-03-08T08:49:59.937Z,3.40
2023-03-08T08:52:27.820Z,3.30
2023-03-08T08:54:57.930Z,3.20
2023-03-08T08:57:25.916Z,3.20
2023-03-08T08:59:53.854Z,3.20
2023-03-08T09:02:21.853Z,3.20
2023-03-08T09:04:49.881Z,3.20
2023-03-08T09:07:17.796Z,3.20
2023-03-08T09:09:46.368Z,3.20
2023-03-08T09:12:15.622Z,3.20
2023-03-08T09:14:43.846Z,3.20
2023-03-08T09:17:12.491Z,3.10
2023-03-08T09:19:40.693Z,3.10
2023-03-08T09:22:08.656Z,3.10
2023-03-08T09:24:36.570Z,3.10
2023-03-08T09:27:06.701Z,3.10
2023-03-08T09:29:37.951Z,3.00
2023-03-08T09:32:07.405Z,3.10
2023-03-08T09:34:35.742Z,3.10
2023-03-08T09:37:05.782Z,3.10
2023-03-08T09:39:33.734Z,3.10
2023-03-08T09:42:06.504Z,3.10
2023-03-08T09:45:07.481Z,3.10
2023-03-08T09:47:47.738Z,3.10
2023-03-08T09:50:34.041Z,3.10
2023-03-08T09:53:11.846Z,3.10
2023-03-08T09:55:48.473Z,3.10
2023-03-08T09:58:28.737Z,3.10
2023-03-08T10:01:11.060Z,3.10
2023-03-08T10:04:28.581Z,3.10
2023-03-08T10:07:15.422Z,3.10
2023-03-08T10:09:52.296Z,3.10
2023-03-08T10:12:29.409Z,3.10
2023-03-08T10:15:05.269Z,3.10
2023-03-08T10:17:45.744Z,3.10
2023-03-08T10:20:22.843Z,3.10
2023-03-08T10:23:00.321Z,3.10
2023-03-08T10:25:31.628Z,3.20
2023-03-08T10:28:02.650Z,3.20
2023-03-08T10:30:35.469Z,3.20
2023-03-08T10:33:12.172Z,3.20
2023-03-08T10:35:56.864Z,3.20
2023-03-08T10:38:28.799Z,3.20
2023-03-08T10:41:06.994Z,3.20
2023-03-08T10:43:41.176Z,3.20
2023-03-08T10:46:15.825Z,3.20
2023-03-08T10:48:45.808Z,3.20
2023-03-08T10:51:20.730Z,3.00
2023-03-08T10:53:56.872Z,3.10
2023-03-08T10:56:32.029Z,2.90
2023-03-08T10:59:00.672Z,2.90
2023-03-08T11:01:31.490Z,2.90
2023-03-08T11:04:03.561Z,2.90
2023-03-08T11:06:32.705Z,2.90
2023-03-08T11:09:03.641Z,2.90
2023-03-08T11:11:42.828Z,2.90
2023-03-08T11:14:12.782Z,2.90
2023-03-08T11:16:54.671Z,2.80
2023-03-08T11:19:45.636Z,2.90
2023-03-08T11:22:29.397Z,3.00
2023-03-08T11:25:33.443Z,3.00
2023-03-08T11:28:25.912Z,3.00
2023-03-08T11:31:14.982Z,3.00
2023-03-08T11:34:35.714Z,3.10
2023-03-08T11:37:14.256Z,3.10
2023-03-08T11:39:47.053Z,3.10
2023-03-08T11:42:29.840Z,3.10
2023-03-08T11:45:18.040Z,3.10
2023-03-08T11:48:18.394Z,3.10
2023-03-08T11:50:54.635Z,3.10
2023-03-08T11:53:37.916Z,3.10
2023-03-08T11:56:40.927Z,3.10
2023-03-08T11:59:18.916Z,3.20
2023-03-08T12:01:53.905Z,3.20
2023-03-08T12:04:31.567Z,3.30
2023-03-08T12:07:10.785Z,3.20
2023-03-08T12:09:50.142Z,3.20
2023-03-08T12:12:25.715Z,3.30
2023-03-08T12:15:01.083Z,3.10
2023-03-08T12:17:38.369Z,3.20
2023-03-08T12:20:14.705Z,3.20
2023-03-08T12:22:54.949Z,3.10
2023-03-08T12:25:29.976Z,3.20
2023-03-08T12:28:05.861Z,3.30
2023-03-08T12:30:50.201Z,3.30
2023-03-08T12:33:19.941Z,3.30
2023-03-08T12:35:54.865Z,3.30
2023-03-08T12:38:45.577Z,3.30
2023-03-08T12:41:27.287Z,3.30
2023-03-08T12:44:05.237Z,3.30
2023-03-08T12:47:01.902Z,3.30
2023-03-08T12:49:35.943Z,3.40
2023-03-08T12:52:07.429Z,3.40
2023-03-08T12:54:37.334Z,3.50
2023-03-08T12:57:22.138Z,3.50
2023-03-08T12:59:57.726Z,3.50
2023-03-08T13:02:32.373Z,3.50
2023-03-08T13:05:21.943Z,3.60
2023-03-08T13:08:07.567Z,3.60
2023-03-08T13:10:41.099Z,3.60
2023-03-08T13:13:38.603Z,3.60
2023-03-08T13:16:21.975Z,3.70
2023-03-08T13:19:01.625Z,3.60
2023-03-08T13:21:35.620Z,3.60
2023-03-08T13:24:15.699Z,3.60
2023-03-08T13:27:10.573Z,3.60
2023-03-08T13:29:38.887Z,3.60
2023-03-08T13:32:14.259Z,3.60
2023-03-08T13:34:45.440Z,3.60
2023-03-08T13:37:24.625Z,3.60
2023-03-08T13:39:54.912Z,3.70
2023-03-08T13:42:27.233Z,3.70
2023-03-08T13:45:10.414Z,3.80
2023-03-08T13:47:40.910Z,3.80
2023-03-08T13:50:19.266Z,3.70
2023-03-08T13:52:48.168Z,3.70
2023-03-08T13:55:22.808Z,3.70
2023-03-08T13:57:55.318Z,3.70
2023-03-08T14:00:34.175Z,3.70
2023-03-08T14:03:06.494Z,3.70
2023-03-08T14:05:42.579Z,3.70
2023-03-08T14:08:21.251Z,3.80
2023-03-08T14:10:53.388Z,3.80
2023-03-08T14:13:29.535Z,3.80
2023-03-08T14:16:00.704Z,3.80
2023-03-08T14:18:33.400Z,3.80
2023-03-08T14:21:06.015Z,3.90
2023-03-08T14:23:41.225Z,3.90
2023-03-08T14:26:31.510Z,4.00
2023-03-08T14:29:18.243Z,4.00
2023-03-08T14:32:04.599Z,4.00
2023-03-08T14:34:36.279Z,4.00
2023-03-08T14:37:08.947Z,4.00
2023-03-08T14:39:38.990Z,4.10
2023-03-08T14:42:17.276Z,4.10
2023-03-08T14:44:53.413Z,4.10
2023-03-08T14:47:25.427Z,4.10
2023-03-08T14:50:00.752Z,4.20
2023-03-08T14:52:30.695Z,4.20
2023-03-08T14:54:58.698Z,4.20
2023-03-08T14:57:30.405Z,4.30
2023-03-08T15:00:13.991Z,4.30
2023-03-08T15:02:42.142Z,4.40
2023-03-08T15:05:22.519Z,4.40
2023-03-08T15:07:57.399Z,4.50
2023-03-08T15:10:30.447Z,4.50
2023-03-08T15:12:58.906Z,4.50
2023-03-08T15:15:28.115Z,4.50
2023-03-08T15:17:56.879Z,4.50
2023-03-08T15:20:25.142Z,4.60
2023-03-08T15:22:57.478Z,4.60
2023-03-08T15:25:35.033Z,4.60
2023-03-08T15:28:03.714Z,4.60
2023-03-08T15:30:34.098Z,4.60
2023-03-08T15:33:02.615Z,4.60
2023-03-08T15:35:31.158Z,4.60
2023-03-08T15:37:59.281Z,4.60
2023-03-08T15:40:31.712Z,4.50
2023-03-08T15:43:00.941Z,4.60
2023-03-08T15:45:29.342Z,4.50
2023-03-08T15:48:01.290Z,4.50
2023-03-08T15:50:30.817Z,4.50
2023-03-08T15:52:58.853Z,4.50
2023-03-08T15:55:29.551Z,4.50
2023-03-08T15:57:58.786Z,4.50
2023-03-08T16:00:27.624Z,4.50
2023-03-08T16:02:56.213Z,4.50
2023-03-08T16:05:28.388Z,4.50
2023-03-08T16:07:57.730Z,4.50
2023-03-08T16:10:26.445Z,4.40
2023-03-08T16:12:55.118Z,4.40
2023-03-08T16:15:23.329Z,4.50
2023-03-08T16:17:51.412Z,4.50
2023-03-08T16:20:20.614Z,4.50
2023-03-08T16:22:49.987Z,4.50
2023-03-08T16:25:18.114Z,4.50
2023-03-08T16:27:46.088Z,4.50
2023-03-08T16:30:14.968Z,4.50
2023-03-08T16:32:43.075Z,4.50
2023-03-08T16:35:11.286Z,4.50
2023-03-08T16:37:39.163Z,4.60
2023-03-08T16:40:10.865Z,4.60
2023-03-08T16:42:38.759Z,4.60
2023-03-08T16:45:08.540Z,4.60
2023-03-08T16:47:36.696Z,4.50
2023-03-08T16:50:05.294Z,4.60
2023-03-08T16:52:33.194Z,4.60
2023-03-08T16:55:01.184Z,4.50
2023-03-08T16:57:30.592Z,4.60
2023-03-08T16:59:58.744Z,4.60
2023-03-08T17:02:26.812Z,4.50
2023-03-08T17:04:54.953Z,4.50
2023-03-08T17:07:22.873Z,4.60
2023-03-08T17:09:52.009Z,4.60
2023-03-08T17:12:20.065Z,4.60
2023-03-08T17:14:49.382Z,4.60
2023-03-08T17:17:17.306Z,4.60
2023-03-08T17:19:46.362Z,4.60
2023-03-08T17:22:14.329Z,4.60
2023-03-08T17:24:42.237Z,4.60
2023-03-08T17:27:10.139Z,4.60
2023-03-08T17:29:38.632Z,4.60
2023-03-08T17:32:08.716Z,4.70
2023-03-08T17:34:37.457Z,4.70
2023-03-08T17:37:11.334Z,4.70
2023-03-08T17:39:39.725Z,4.60
2023-03-08T17:42:08.501Z,4.60
2023-03-08T17:44:36.773Z,4.60
2023-03-08T17:47:05.151Z,4.70
2023-03-08T17:49:34.882Z,4.70
2023-03-08T17:52:02.843Z,4.70
2023-03-08T17:54:30.788Z,4.70
2023-03-08T17:56:58.732Z,4.60
2023-03-08T17:59:26.644Z,4.60
2023-03-08T18:01:54.696Z,4.60
2023-03-08T18:04:23.420Z,4.60
2023-03-08T18:06:52.703Z,4.60
2023-03-08T18:09:21.201Z,4.60
2023-03-08T18:11:50.037Z,4.70
2023-03-08T18:14:17.941Z,4.70
2023-03-08T18:16:46.401Z,4.60
2023-03-08T18:19:14.543Z,4.70
2023-03-08T18:21:42.675Z,4.60
2023-03-08T18:24:13.503Z,4.60
2023-03-08T18:26:41.493Z,4.70
2023-03-08T18:29:09.400Z,4.70
2023-03-08T18:31:38.376Z,4.70
2023-03-08T18:34:06.896Z,4.70
2023-03-08T18:36:35.975Z,4.70
2023-03-08T18:39:06.062Z,4.70
2023-03-08T18:41:35.919Z,4.80
2023-03-08T18:44:04.311Z,4.80
2023-03-08T18:46:34.767Z,4.70
2023-03-08T18:49:06.706Z,4.70
2023-03-08T18:51:37.718Z,4.80
2023-03-08T18:54:07.748Z,4.80
2023-03-08T18:56:37.347Z,4.90
2023-03-08T18:59:08.314Z,4.90
2023-03-08T19:01:36.812Z,5.00
2023-03-08T19:04:06.950Z,5.00
2023-03-08T19:06:35.453Z,5.10
2023-03-08T19:09:10.183Z,5.10
2023-03-08T19:11:40.057Z,5.10
2023-03-08T19:14:08.284Z,5.00
2023-03-08T19:16:37.015Z,5.00
2023-03-08T19:19:08.830Z,4.90
2023-03-08T19:21:41.773Z,4.90
2023-03-08T19:24:12.201Z,4.90
2023-03-08T19:26:43.247Z,5.00
2023-03-08T19:29:14.795Z,4.80
2023-03-08T19:31:46.522Z,4.80
2023-03-08T19:34:15.217Z,4.80
2023-03-08T19:36:45.199Z,4.70
2023-03-08T19:39:16.192Z,4.70
2023-03-08T19:41:48.854Z,4.80
2023-03-08T19:44:16.951Z,4.70
2023-03-08T19:46:45.280Z,4.70
2023-03-08T19:49:16.845Z,4.70
2023-03-08T19:51:48.154Z,4.70
2023-03-08T19:54:16.846Z,4.70
2023-03-08T19:56:46.210Z,4.70
2023-03-08T19:59:14.845Z,4.70
2023-03-08T20:01:43.551Z,4.80
2023-03-08T20:04:12.911Z,4.80
2023-03-08T20:06:46.497Z,4.80
2023-03-08T20:09:21.431Z,4.80
2023-03-08T20:11:56.471Z,4.80
2023-03-08T20:14:27.792Z,4.70
2023-03-08T20:16:57.935Z,4.80
2023-03-08T20:19:26.202Z,4.80
2023-03-08T20:21:54.105Z,4.80
2023-03-08T20:24:24.090Z,4.80
2023-03-08T20:26:53.489Z,4.80
2023-03-08T20:29:21.590Z,4.80
2023-03-08T20:31:50.060Z,4.70
2023-03-08T20:34:18.611Z,4.70
2023-03-08T20:36:47.692Z,4.70
2023-03-08T20:39:15.897Z,4.70
2023-03-08T20:41:44.333Z,4.80
2023-03-08T20:44:13.655Z,4.70
2023-03-08T20:46:43.656Z,4.80
2023-03-08T20:49:12.435Z,4.80
2023-03-08T20:51:40.426Z,4.80
2023-03-08T20:54:08.738Z,4.80
2023-03-08T20:56:36.698Z,4.80
2023-03-08T20:59:05.242Z,4.80
2023-03-08T21:01:34.808Z,4.70
2023-03-08T21:04:03.092Z,4.80
2023-03-08T21:06:32.853Z,4.70
2023-03-08T21:09:01.528Z,4.80
2023-03-08T21:11:30.512Z,4.80
2023-03-08T21:13:58.385Z,4.80
2023-03-08T21:16:29.673Z,4.80
2023-03-08T21:19:01.695Z,4.80
2023-03-08T21:21:34.138Z,4.80
2023-03-08T21:24:05.964Z,4.80
2023-03-08T21:26:35.392Z,4.90
2023-03-08T21:29:06.361Z,4.90
2023-03-08T21:31:37.248Z,4.90
2023-03-08T21:34:07.968Z,4.90
2023-03-08T21:36:38.128Z,4.90
2023-03-08T21:39:08.472Z,5.00
2023-03-08T21:41:39.479Z,5.00
2023-03-08T21:44:17.590Z,5.00
2023-03-08T21:46:47.339Z,5.00
2023-03-08T21:49:19.446Z,5.10
2023-03-08T21:51:47.390Z,5.00
2023-03-08T21:54:16.025Z,5.00
2023-03-08T21:56:44.346Z,5.00
2023-03-08T21:59:12.942Z,5.00
2023-03-08T22:01:41.826Z,5.00
2023-03-08T22:04:09.834Z,5.00
2023-03-08T22:06:39.120Z,5.00
2023-03-08T22:09:07.002Z,5.00
2023-03-08T22:11:35.300Z,5.00
2023-03-08T22:14:03.821Z,5.00
2023-03-08T22:16:33.260Z,4.90
2023-03-08T22:19:03.258Z,4.90
2023-03-08T22:21:31.947Z,4.90
2023-03-08T22:24:03.191Z,4.90
2023-03-08T22:26:32.792Z,5.00
2023-03-08T22:29:01.225Z,5.10
2023-03-08T22:31:31.243Z,5.20
2023-03-08T22:34:00.404Z,5.30
2023-03-08T22:36:28.562Z,5.30
2023-03-08T22:38:56.544Z,5.40
2023-03-08T22:41:28.411Z,5.40
2023-03-08T22:43:56.826Z,5.50
2023-03-08T22:46:27.150Z,5.60
2023-03-08T22:48:57.614Z,5.60
2023-03-08T22:51:27.684Z,5.60
2023-03-08T22:53:56.037Z,5.70
2023-03-08T22:56:30.094Z,5.80
2023-03-08T22:58:58.759Z,5.80
2023-03-08T23:01:29.368Z,5.80
2023-03-08T23:03:59.832Z,5.80
2023-03-08T23:06:31.235Z,5.90
2023-03-08T23:09:02.096Z,6.00
2023-03-08T23:11:31.461Z,6.10
2023-03-08T23:13:59.527Z,6.20
2023-03-08T23:16:27.922Z,6.20
2023-03-08T23:18:56.450Z,6.20
2023-03-08T23:21:29.241Z,6.30
2023-03-08T23:23:57.704Z,6.30
2023-03-08T23:26:28.555Z,6.30
2023-03-08T23:29:00.152Z,6.30
2023-03-08T23:31:31.842Z,6.30
2023-03-08T23:34:01.490Z,6.30
2023-03-08T23:36:32.128Z,6.30
2023-03-08T23:39:03.512Z,6.40
2023-03-08T23:41:32.290Z,6.30
2023-03-08T23:44:03.894Z,6.40
2023-03-08T23:46:32.681Z,6.40
2023-03-08T23:49:02.361Z,6.30
2023-03-08T23:51:34.000Z,6.30
2023-03-08T23:54:03.501Z,6.30
2023-03-08T23:56:37.902Z,6.30
2023-03-08T23:59:17.940Z,6.40
